createdAt,value
2019-06-08T00:00:27.155Z,19.92
2019-06-08T00:01:27.147Z,20.02
2019-06-08T00:02:27.132Z,20.02
2019-06-08T00:03:38.856Z,19.94
2019-06-08T00:04:27.264Z,19.90
2019-06-08T00:05:27.104Z,19.94
2019-06-08T00:06:27.094Z,19.87
2019-06-08T00:07:27.087Z,19.87
2019-06-08T00:08:27.165Z,19.89
2019-06-08T00:09:27.056Z,19.89
2019-06-08T00:10:27.053Z,19.87
2019-06-08T00:11:27.047Z,19.84
2019-06-08T00:12:27.046Z,19.84
2019-06-08T00:13:27.011Z,19.90
2019-06-08T00:14:27.015Z,19.87
2019-06-08T00:15:27.008Z,19.93
2019-06-08T00:16:26.980Z,20.00
2019-06-08T00:17:37.771Z,19.96
2019-06-08T00:18:27.961Z,19.99
2019-06-08T00:19:26.969Z,19.94
2019-06-08T00:20:26.938Z,19.93
2019-06-08T00:21:26.940Z,19.96
2019-06-08T00:22:26.927Z,19.92
2019-06-08T00:23:26.898Z,19.97
2019-06-08T00:24:26.935Z,19.94
2019-06-08T00:25:26.894Z,20.02
2019-06-08T00:26:26.950Z,19.92
2019-06-08T00:27:26.897Z,19.85
2019-06-08T00:28:26.853Z,19.79
2019-06-08T00:29:26.872Z,19.92
2019-06-08T00:30:26.863Z,19.82
2019-06-08T00:31:26.815Z,19.92
2019-06-08T00:32:26.799Z,19.84
2019-06-08T00:33:26.792Z,19.84
2019-06-08T00:34:38.545Z,19.84
2019-06-08T00:35:26.775Z,19.92
2019-06-08T00:36:26.758Z,19.84
2019-06-08T00:37:26.744Z,19.94
2019-06-08T00:38:26.730Z,19.94
2019-06-08T00:39:26.721Z,19.94
2019-06-08T00:40:26.750Z,19.89
2019-06-08T00:41:26.697Z,19.84
2019-06-08T00:42:26.702Z,19.89
2019-06-08T00:43:26.677Z,19.89
2019-06-08T00:44:26.675Z,19.79
2019-06-08T00:45:26.684Z,19.78
2019-06-08T00:46:26.656Z,19.78
2019-06-08T00:47:26.920Z,19.67
2019-06-08T00:48:28.732Z,19.66
2019-06-08T00:49:26.629Z,19.67
2019-06-08T00:50:26.605Z,19.66
2019-06-08T00:51:26.660Z,19.67
2019-06-08T00:52:26.836Z,19.63
2019-06-08T00:53:26.570Z,19.60
2019-06-08T00:54:26.561Z,19.62
2019-06-08T00:55:26.545Z,19.56
2019-06-08T00:56:26.533Z,19.57
2019-06-08T00:57:26.550Z,19.52
2019-06-08T00:58:26.546Z,19.44
2019-06-08T00:59:26.499Z,19.49
2019-06-08T01:00:26.859Z,19.55
2019-06-08T01:01:28.153Z,19.45
2019-06-08T01:02:26.805Z,19.48
2019-06-08T01:03:26.459Z,19.47
2019-06-08T01:04:27.149Z,19.44
2019-06-08T01:05:38.413Z,19.38
2019-06-08T01:06:27.550Z,19.48
2019-06-08T01:07:26.417Z,19.45
2019-06-08T01:08:27.480Z,19.49
2019-06-08T01:09:26.413Z,19.42
2019-06-08T01:10:27.555Z,19.34
2019-06-08T01:11:26.929Z,19.45
2019-06-08T01:12:26.798Z,19.45
2019-06-08T01:13:26.927Z,19.48
2019-06-08T01:14:27.077Z,19.35
2019-06-08T01:15:32.177Z,19.39
2019-06-08T01:16:27.312Z,19.42
2019-06-08T01:17:27.506Z,19.56
2019-06-08T01:18:27.455Z,19.38
2019-06-08T01:19:27.431Z,19.39
2019-06-08T01:20:27.379Z,19.41
2019-06-08T01:21:27.576Z,19.55
2019-06-08T01:22:27.630Z,19.49
2019-06-08T01:23:27.776Z,19.49
2019-06-08T01:24:26.251Z,19.44
2019-06-08T01:25:26.214Z,19.63
2019-06-08T01:26:26.194Z,19.55
2019-06-08T01:27:26.187Z,19.52
2019-06-08T01:28:26.235Z,19.62
2019-06-08T01:29:26.342Z,19.53
2019-06-08T01:30:26.430Z,19.62
2019-06-08T01:31:26.577Z,19.52
2019-06-08T01:32:26.429Z,19.49
2019-06-08T01:33:26.582Z,19.56
2019-06-08T01:34:27.027Z,19.45
2019-06-08T01:35:26.934Z,19.49
2019-06-08T01:36:37.697Z,19.52
2019-06-08T01:37:27.010Z,19.66
2019-06-08T01:38:27.184Z,19.60
2019-06-08T01:39:27.222Z,19.72
2019-06-08T01:40:27.356Z,19.64
2019-06-08T01:41:27.354Z,19.74
2019-06-08T01:42:26.029Z,19.72
2019-06-08T01:43:26.018Z,19.66
2019-06-08T01:44:26.042Z,19.75
2019-06-08T01:45:25.981Z,19.79
2019-06-08T01:46:25.983Z,19.74
2019-06-08T01:47:26.227Z,19.81
2019-06-08T01:48:26.232Z,19.79
2019-06-08T01:49:26.258Z,19.78
2019-06-08T01:50:26.438Z,19.90
2019-06-08T01:51:26.565Z,19.87
2019-06-08T01:52:26.619Z,19.93
2019-06-08T01:53:26.859Z,20.03
2019-06-08T01:54:26.910Z,20.08
2019-06-08T01:55:27.031Z,20.07
2019-06-08T01:56:27.041Z,20.14
2019-06-08T01:57:27.129Z,20.17
2019-06-08T01:58:25.872Z,20.26
2019-06-08T01:59:25.858Z,20.22
2019-06-08T02:00:30.720Z,20.33
2019-06-08T02:01:27.776Z,20.36
2019-06-08T02:02:25.975Z,20.67
2019-06-08T02:03:26.264Z,20.93
2019-06-08T02:04:26.072Z,21.25
2019-06-08T02:05:26.130Z,21.56
2019-06-08T02:06:26.156Z,21.96
2019-06-08T02:07:38.024Z,22.30
2019-06-08T02:08:26.568Z,22.49
2019-06-08T02:09:26.519Z,22.78
2019-06-08T02:10:26.626Z,23.08
2019-06-08T02:11:26.707Z,23.33
2019-06-08T02:12:26.718Z,23.45
2019-06-08T02:13:26.863Z,23.63
2019-06-08T02:14:27.039Z,23.82
2019-06-08T02:15:27.090Z,24.03
2019-06-08T02:16:25.752Z,24.09
2019-06-08T02:17:25.683Z,24.03
2019-06-08T02:18:36.500Z,23.91
2019-06-08T02:19:26.658Z,23.49
2019-06-08T02:20:26.358Z,23.37
2019-06-08T02:21:26.750Z,23.55
2019-06-08T02:22:26.687Z,23.82
2019-06-08T02:23:26.912Z,24.18
2019-06-08T02:24:25.561Z,24.22
2019-06-08T02:25:25.537Z,24.46
2019-06-08T02:26:27.567Z,24.75
2019-06-08T02:27:25.520Z,25.01
2019-06-08T02:28:25.519Z,25.01
2019-06-08T02:29:25.522Z,25.19
2019-06-08T02:30:25.480Z,25.41
2019-06-08T02:31:25.467Z,25.55
2019-06-08T02:32:25.474Z,25.56
2019-06-08T02:33:25.463Z,25.44
2019-06-08T02:34:25.448Z,25.59
2019-06-08T02:35:25.424Z,25.70
2019-06-08T02:36:25.414Z,25.89
2019-06-08T02:37:25.402Z,25.83
2019-06-08T02:38:39.507Z,26.11
2019-06-08T02:39:25.474Z,26.18
2019-06-08T02:40:25.371Z,26.26
2019-06-08T02:41:25.377Z,26.44
2019-06-08T02:42:25.362Z,26.56
2019-06-08T02:43:25.343Z,26.55
2019-06-08T02:44:25.368Z,26.39
2019-06-08T02:45:25.328Z,26.56
2019-06-08T02:46:25.316Z,26.59
2019-06-08T02:47:25.307Z,26.86
2019-06-08T02:48:25.293Z,26.88
2019-06-08T02:49:25.285Z,26.89
2019-06-08T02:50:25.282Z,26.91
2019-06-08T02:51:25.264Z,27.01
2019-06-08T02:52:25.246Z,27.40
2019-06-08T02:53:25.234Z,27.67
2019-06-08T02:54:25.285Z,27.60
2019-06-08T02:55:25.217Z,27.48
2019-06-08T02:56:25.207Z,27.76
2019-06-08T02:57:25.192Z,27.79
2019-06-08T02:58:25.187Z,27.91
2019-06-08T02:59:25.163Z,28.20
2019-06-08T03:00:25.162Z,28.19
2019-06-08T03:01:25.157Z,28.40
2019-06-08T03:02:25.150Z,28.37
2019-06-08T03:03:25.123Z,28.49
2019-06-08T03:04:25.123Z,28.62
2019-06-08T03:05:25.154Z,28.49
2019-06-08T03:06:25.094Z,28.53
2019-06-08T03:07:25.089Z,28.78
2019-06-08T03:08:25.093Z,28.62
2019-06-08T03:09:36.598Z,28.74
2019-06-08T03:10:25.053Z,28.71
2019-06-08T03:11:25.049Z,28.71
2019-06-08T03:12:25.043Z,28.62
2019-06-08T03:13:25.023Z,28.68
2019-06-08T03:14:25.014Z,28.65
2019-06-08T03:15:25.011Z,28.62
2019-06-08T03:16:25.039Z,28.62
2019-06-08T03:17:24.980Z,28.68
2019-06-08T03:18:24.977Z,28.96
2019-06-08T03:19:24.957Z,29.37
2019-06-08T03:20:24.950Z,29.49
2019-06-08T03:21:24.952Z,29.68
2019-06-08T03:22:24.965Z,29.65
2019-06-08T03:23:24.914Z,29.71
2019-06-08T03:24:24.915Z,29.22
2019-06-08T03:25:24.891Z,29.25
2019-06-08T03:26:24.885Z,29.37
2019-06-08T03:27:24.881Z,29.55
2019-06-08T03:28:24.884Z,29.86
2019-06-08T03:29:24.856Z,29.77
2019-06-08T03:30:24.838Z,29.81
2019-06-08T03:31:24.841Z,30.21
2019-06-08T03:32:24.828Z,30.11
2019-06-08T03:33:24.823Z,29.58
2019-06-08T03:34:24.860Z,29.55
2019-06-08T03:35:24.799Z,29.95
2019-06-08T03:36:24.848Z,29.32
2019-06-08T03:37:24.767Z,29.42
2019-06-08T03:38:24.774Z,29.98
2019-06-08T03:39:24.758Z,30.26
2019-06-08T03:40:38.189Z,30.44
2019-06-08T03:41:24.732Z,30.18
2019-06-08T03:42:24.759Z,30.49
2019-06-08T03:43:24.713Z,30.40
2019-06-08T03:44:24.702Z,29.80
2019-06-08T03:45:24.690Z,30.24
2019-06-08T03:46:24.676Z,30.36
2019-06-08T03:47:24.666Z,30.20
2019-06-08T03:48:24.674Z,30.39
2019-06-08T03:49:41.025Z,30.39
2019-06-08T03:50:25.634Z,30.11
2019-06-08T03:51:24.624Z,29.52
2019-06-08T03:52:24.639Z,29.58
2019-06-08T03:53:24.655Z,29.37
2019-06-08T03:54:24.600Z,29.98
2019-06-08T03:55:24.585Z,30.33
2019-06-08T03:56:24.582Z,30.46
2019-06-08T03:57:24.565Z,30.20
2019-06-08T03:58:24.565Z,30.49
2019-06-08T03:59:24.596Z,30.52
2019-06-08T04:00:24.542Z,30.91
2019-06-08T04:01:24.530Z,31.05
2019-06-08T04:02:24.544Z,31.42
2019-06-08T04:03:24.511Z,31.39
2019-06-08T04:04:24.549Z,31.57
2019-06-08T04:05:24.508Z,31.79
2019-06-08T04:06:24.474Z,32.17
2019-06-08T04:07:24.472Z,32.64
2019-06-08T04:08:24.460Z,32.81
2019-06-08T04:09:24.470Z,32.95
2019-06-08T04:10:24.448Z,33.05
2019-06-08T04:11:37.719Z,33.19
2019-06-08T04:12:24.416Z,32.91
2019-06-08T04:13:24.410Z,33.20
2019-06-08T04:14:24.430Z,33.19
2019-06-08T04:15:24.392Z,33.08
2019-06-08T04:16:24.376Z,33.12
2019-06-08T04:17:24.366Z,32.88
2019-06-08T04:18:24.358Z,32.81
2019-06-08T04:19:24.353Z,33.19
2019-06-08T04:20:24.345Z,33.23
2019-06-08T04:21:24.322Z,32.71
2019-06-08T04:22:24.316Z,32.88
2019-06-08T04:23:24.317Z,33.08
2019-06-08T04:24:24.294Z,32.93
2019-06-08T04:25:24.296Z,32.67
2019-06-08T04:26:24.323Z,32.42
2019-06-08T04:27:24.269Z,32.75
2019-06-08T04:28:24.255Z,32.81
2019-06-08T04:29:24.254Z,33.09
2019-06-08T04:30:24.287Z,33.60
2019-06-08T04:31:24.237Z,33.91
2019-06-08T04:32:24.222Z,33.92
2019-06-08T04:33:24.208Z,34.29
2019-06-08T04:34:24.198Z,34.65
2019-06-08T04:35:24.193Z,33.67
2019-06-08T04:36:24.197Z,33.69
2019-06-08T04:37:24.171Z,34.25
2019-06-08T04:38:24.171Z,34.66
2019-06-08T04:39:24.154Z,34.60
2019-06-08T04:40:24.146Z,34.31
2019-06-08T04:41:24.145Z,34.44
2019-06-08T04:42:36.625Z,34.48
2019-06-08T04:43:24.121Z,34.73
2019-06-08T04:44:24.103Z,34.62
2019-06-08T04:45:24.097Z,34.44
2019-06-08T04:46:24.090Z,34.48
2019-06-08T04:47:24.083Z,34.63
2019-06-08T04:48:24.070Z,34.46
2019-06-08T04:49:24.060Z,34.56
2019-06-08T04:50:24.455Z,34.59
2019-06-08T04:51:24.047Z,33.60
2019-06-08T04:52:24.037Z,33.65
2019-06-08T04:53:24.021Z,33.81
2019-06-08T04:54:24.023Z,34.02
2019-06-08T04:55:24.006Z,34.31
2019-06-08T04:56:24.026Z,34.43
2019-06-08T04:57:23.987Z,34.24
2019-06-08T04:58:23.970Z,33.97
2019-06-08T04:59:23.971Z,34.03
2019-06-08T05:00:23.950Z,33.44
2019-06-08T05:01:23.943Z,33.28
2019-06-08T05:02:23.963Z,33.45
2019-06-08T05:03:23.925Z,33.92
2019-06-08T05:04:23.925Z,34.29
2019-06-08T05:05:23.904Z,34.58
2019-06-08T05:06:23.896Z,34.70
2019-06-08T05:07:23.880Z,34.59
2019-06-08T05:08:23.890Z,34.79
2019-06-08T05:09:23.879Z,34.48
2019-06-08T05:10:23.858Z,34.98
2019-06-08T05:11:23.844Z,34.97
2019-06-08T05:12:23.833Z,34.33
2019-06-08T05:13:36.233Z,34.58
2019-06-08T05:14:23.822Z,35.08
2019-06-08T05:15:23.804Z,35.15
2019-06-08T05:16:23.801Z,34.66
2019-06-08T05:17:23.788Z,34.81
2019-06-08T05:18:26.112Z,35.16
2019-06-08T05:19:23.767Z,35.32
2019-06-08T05:20:37.674Z,35.22
2019-06-08T05:21:24.750Z,35.05
2019-06-08T05:22:23.756Z,35.13
2019-06-08T05:23:23.731Z,35.16
2019-06-08T05:24:23.729Z,35.20
2019-06-08T05:25:23.723Z,35.37
2019-06-08T05:26:23.712Z,35.13
2019-06-08T05:27:23.700Z,35.31
2019-06-08T05:28:23.689Z,35.30
2019-06-08T05:29:23.708Z,35.54
2019-06-08T05:30:23.664Z,35.90
2019-06-08T05:31:23.696Z,36.32
2019-06-08T05:32:23.642Z,35.88
2019-06-08T05:33:23.648Z,36.00
2019-06-08T05:34:23.628Z,36.59
2019-06-08T05:35:23.624Z,37.10
2019-06-08T05:36:23.607Z,37.37
2019-06-08T05:37:23.591Z,37.38
2019-06-08T05:38:23.597Z,37.47
2019-06-08T05:39:23.579Z,37.15
2019-06-08T05:40:23.571Z,36.59
2019-06-08T05:41:24.287Z,36.44
2019-06-08T05:42:23.553Z,36.31
2019-06-08T05:43:23.536Z,36.29
2019-06-08T05:44:35.521Z,36.45
2019-06-08T05:45:23.525Z,36.48
2019-06-08T05:46:23.504Z,36.54
2019-06-08T05:47:23.494Z,36.53
2019-06-08T05:48:23.513Z,36.51
2019-06-08T05:49:23.499Z,36.53
2019-06-08T05:50:23.507Z,36.81
2019-06-08T05:51:23.457Z,36.60
2019-06-08T05:52:23.458Z,36.13
2019-06-08T05:53:23.438Z,35.76
2019-06-08T05:54:23.426Z,35.59
2019-06-08T05:55:23.437Z,35.47
2019-06-08T05:56:23.418Z,35.63
2019-06-08T05:57:23.406Z,35.35
2019-06-08T05:58:23.410Z,35.74
2019-06-08T05:59:23.379Z,35.56
2019-06-08T06:00:23.374Z,35.37
2019-06-08T06:01:23.372Z,35.18
2019-06-08T06:02:24.267Z,35.41
2019-06-08T06:03:23.348Z,35.45
2019-06-08T06:04:23.333Z,34.62
2019-06-08T06:05:23.327Z,34.47
2019-06-08T06:06:23.325Z,34.41
2019-06-08T06:07:23.314Z,34.29
2019-06-08T06:08:23.300Z,33.40
2019-06-08T06:09:23.314Z,33.10
2019-06-08T06:10:23.287Z,32.82
2019-06-08T06:11:23.268Z,33.23
2019-06-08T06:12:23.273Z,33.33
2019-06-08T06:13:23.254Z,33.66
2019-06-08T06:14:23.242Z,34.00
2019-06-08T06:15:35.077Z,34.53
2019-06-08T06:16:23.224Z,34.04
2019-06-08T06:17:23.215Z,33.32
2019-06-08T06:18:23.195Z,32.53
2019-06-08T06:19:23.191Z,32.01
2019-06-08T06:20:23.177Z,31.70
2019-06-08T06:21:23.169Z,31.59
2019-06-08T06:22:23.167Z,31.69
2019-06-08T06:23:23.154Z,31.52
2019-06-08T06:24:23.153Z,31.26
2019-06-08T06:25:23.128Z,31.13
2019-06-08T06:26:23.123Z,30.92
2019-06-08T06:27:23.115Z,30.81
2019-06-08T06:28:23.114Z,30.48
2019-06-08T06:29:23.092Z,30.08
2019-06-08T06:30:23.080Z,30.06
2019-06-08T06:31:23.077Z,30.10
2019-06-08T06:32:23.099Z,30.40
2019-06-08T06:33:23.061Z,30.51
2019-06-08T06:34:23.037Z,30.26
2019-06-08T06:35:23.033Z,30.23
2019-06-08T06:36:23.019Z,30.38
2019-06-08T06:37:23.013Z,30.63
2019-06-08T06:38:23.005Z,30.63
2019-06-08T06:39:22.986Z,30.98
2019-06-08T06:40:22.984Z,31.17
2019-06-08T06:41:22.964Z,31.11
2019-06-08T06:42:25.032Z,31.23
2019-06-08T06:43:22.957Z,31.25
2019-06-08T06:44:22.944Z,31.29
2019-06-08T06:45:22.926Z,31.26
2019-06-08T06:46:34.900Z,31.35
2019-06-08T06:47:22.901Z,31.28
2019-06-08T06:48:23.735Z,31.20
2019-06-08T06:49:22.883Z,31.05
2019-06-08T06:50:22.871Z,31.07
2019-06-08T06:51:26.526Z,31.26
2019-06-08T06:52:22.854Z,31.41
2019-06-08T06:53:22.845Z,31.63
2019-06-08T06:54:22.831Z,31.82
2019-06-08T06:55:25.341Z,31.29
2019-06-08T06:56:22.817Z,30.83
2019-06-08T06:57:22.799Z,30.81
2019-06-08T06:58:22.824Z,31.17
2019-06-08T06:59:22.800Z,31.30
2019-06-08T07:00:22.765Z,31.45
2019-06-08T07:01:22.761Z,31.32
2019-06-08T07:02:22.748Z,30.91
2019-06-08T07:03:22.743Z,30.67
2019-06-08T07:04:22.762Z,30.52
2019-06-08T07:05:22.720Z,30.26
2019-06-08T07:06:22.708Z,30.20
2019-06-08T07:07:22.729Z,30.08
2019-06-08T07:08:22.791Z,30.01
2019-06-08T07:09:22.686Z,30.08
2019-06-08T07:10:22.667Z,30.06
2019-06-08T07:11:22.652Z,30.10
2019-06-08T07:12:22.643Z,30.26
2019-06-08T07:13:22.660Z,30.46
2019-06-08T07:14:22.656Z,30.56
2019-06-08T07:15:22.604Z,30.81
2019-06-08T07:16:22.601Z,30.98
2019-06-08T07:17:33.999Z,31.14
2019-06-08T07:18:22.580Z,30.77
2019-06-08T07:19:22.563Z,30.63
2019-06-08T07:20:22.556Z,30.70
2019-06-08T07:21:22.542Z,30.74
2019-06-08T07:22:22.526Z,30.93
2019-06-08T07:23:22.521Z,31.11
2019-06-08T07:24:22.525Z,31.07
2019-06-08T07:25:22.499Z,30.65
2019-06-08T07:26:22.494Z,30.63
2019-06-08T07:27:22.481Z,30.43
2019-06-08T07:28:22.468Z,30.55
2019-06-08T07:29:22.469Z,30.76
2019-06-08T07:30:22.490Z,30.92
2019-06-08T07:31:22.429Z,31.04
2019-06-08T07:32:22.424Z,30.77
2019-06-08T07:33:22.421Z,30.88
2019-06-08T07:34:22.421Z,31.05
2019-06-08T07:35:22.385Z,31.20
2019-06-08T07:36:22.389Z,31.23
2019-06-08T07:37:22.369Z,31.13
2019-06-08T07:38:22.361Z,31.18
2019-06-08T07:39:22.341Z,31.29
2019-06-08T07:40:22.355Z,31.39
2019-06-08T07:41:22.342Z,31.52
2019-06-08T07:42:22.315Z,31.33
2019-06-08T07:43:22.306Z,31.17
2019-06-08T07:44:22.292Z,31.00
2019-06-08T07:45:22.280Z,31.14
2019-06-08T07:46:22.276Z,31.28
2019-06-08T07:47:22.255Z,31.18
2019-06-08T07:48:34.725Z,31.26
2019-06-08T07:49:22.238Z,30.96
2019-06-08T07:50:22.229Z,30.99
2019-06-08T07:51:22.237Z,31.02
2019-06-08T07:52:22.214Z,31.00
2019-06-08T07:53:22.192Z,30.96
2019-06-08T07:54:22.192Z,31.02
2019-06-08T07:55:22.168Z,31.11
2019-06-08T07:56:22.157Z,31.18
2019-06-08T07:57:22.170Z,31.22
2019-06-08T07:58:22.134Z,31.25
2019-06-08T07:59:22.137Z,31.42
2019-06-08T08:00:22.128Z,31.41
2019-06-08T08:01:35.374Z,31.60
2019-06-08T08:02:23.113Z,31.26
2019-06-08T08:03:22.090Z,31.13
2019-06-08T08:04:22.070Z,31.26
2019-06-08T08:05:22.060Z,31.32
2019-06-08T08:06:22.074Z,31.11
2019-06-08T08:07:22.045Z,30.96
2019-06-08T08:08:22.037Z,30.96
2019-06-08T08:09:22.029Z,30.91
2019-06-08T08:10:22.013Z,31.04
2019-06-08T08:11:22.004Z,31.13
2019-06-08T08:12:22.005Z,30.96
2019-06-08T08:13:21.981Z,31.05
2019-06-08T08:14:21.970Z,31.11
2019-06-08T08:15:21.962Z,31.35
2019-06-08T08:16:21.941Z,31.10
2019-06-08T08:17:21.939Z,31.14
2019-06-08T08:18:21.931Z,30.95
2019-06-08T08:19:34.109Z,31.08
2019-06-08T08:20:21.905Z,31.07
2019-06-08T08:21:25.882Z,31.23
2019-06-08T08:22:25.991Z,31.10
2019-06-08T08:23:21.871Z,31.11
2019-06-08T08:24:21.858Z,30.99
2019-06-08T08:25:21.850Z,31.23
2019-06-08T08:26:21.836Z,31.28
2019-06-08T08:27:21.838Z,31.33
2019-06-08T08:28:21.832Z,31.41
2019-06-08T08:29:21.802Z,31.59
2019-06-08T08:30:21.796Z,31.59
2019-06-08T08:31:21.807Z,31.67
2019-06-08T08:32:21.795Z,31.44
2019-06-08T08:33:21.759Z,31.59
2019-06-08T08:34:21.762Z,31.45
2019-06-08T08:35:21.735Z,31.44
2019-06-08T08:36:21.725Z,31.45
2019-06-08T08:37:22.025Z,31.41
2019-06-08T08:38:21.719Z,31.26
2019-06-08T08:39:21.693Z,31.10
2019-06-08T08:40:21.689Z,31.29
2019-06-08T08:41:21.680Z,31.50
2019-06-08T08:42:21.664Z,31.54
2019-06-08T08:43:23.129Z,31.35
2019-06-08T08:44:21.668Z,31.50
2019-06-08T08:45:21.628Z,31.47
2019-06-08T08:46:21.625Z,31.42
2019-06-08T08:47:21.612Z,31.50
2019-06-08T08:48:27.577Z,31.50
2019-06-08T08:49:22.588Z,31.62
2019-06-08T08:50:34.064Z,31.81
2019-06-08T08:51:21.566Z,31.86
2019-06-08T08:52:33.630Z,31.69
2019-06-08T08:53:22.587Z,31.54
2019-06-08T08:54:21.532Z,31.66
2019-06-08T08:55:21.520Z,31.73
2019-06-08T08:56:21.524Z,31.92
2019-06-08T08:57:21.505Z,32.07
2019-06-08T08:58:21.490Z,31.92
2019-06-08T08:59:21.490Z,31.64
2019-06-08T09:00:21.475Z,31.73
2019-06-08T09:01:21.462Z,31.63
2019-06-08T09:02:21.567Z,31.57
2019-06-08T09:03:28.891Z,31.52
2019-06-08T09:04:22.433Z,31.37
2019-06-08T09:05:21.447Z,31.41
2019-06-08T09:06:21.418Z,31.50
2019-06-08T09:07:21.398Z,31.64
2019-06-08T09:08:23.369Z,31.77
2019-06-08T09:09:21.794Z,31.95
2019-06-08T09:10:21.364Z,32.01
2019-06-08T09:11:21.352Z,32.12
2019-06-08T09:12:21.382Z,32.04
2019-06-08T09:13:21.333Z,31.79
2019-06-08T09:14:21.368Z,31.89
2019-06-08T09:15:21.314Z,32.01
2019-06-08T09:16:21.298Z,32.20
2019-06-08T09:17:21.297Z,32.30
2019-06-08T09:18:21.287Z,32.41
2019-06-08T09:19:21.267Z,32.59
2019-06-08T09:20:21.300Z,32.61
2019-06-08T09:21:33.873Z,32.61
2019-06-08T09:22:21.244Z,32.53
2019-06-08T09:23:21.962Z,32.42
2019-06-08T09:24:21.213Z,32.34
2019-06-08T09:25:21.207Z,32.35
2019-06-08T09:26:21.213Z,32.42
2019-06-08T09:27:21.201Z,32.41
2019-06-08T09:28:21.176Z,32.41
2019-06-08T09:29:21.205Z,32.42
2019-06-08T09:30:21.186Z,32.41
2019-06-08T09:31:21.156Z,32.34
2019-06-08T09:32:21.132Z,32.41
2019-06-08T09:33:21.124Z,32.53
2019-06-08T09:34:21.212Z,32.41
2019-06-08T09:35:21.523Z,32.71
2019-06-08T09:36:21.088Z,32.78
2019-06-08T09:37:21.082Z,32.81
2019-06-08T09:38:21.074Z,32.83
2019-06-08T09:39:21.051Z,32.82
2019-06-08T09:40:21.048Z,32.97
2019-06-08T09:41:21.046Z,33.10
2019-06-08T09:42:21.378Z,33.12
2019-06-08T09:43:21.124Z,33.00
2019-06-08T09:44:20.999Z,32.91
2019-06-08T09:45:21.008Z,32.82
2019-06-08T09:46:21.007Z,32.78
2019-06-08T09:47:20.966Z,32.67
2019-06-08T09:48:20.980Z,32.68
2019-06-08T09:49:20.971Z,32.75
2019-06-08T09:50:20.943Z,32.85
2019-06-08T09:51:20.927Z,33.03
2019-06-08T09:52:33.624Z,32.95
2019-06-08T09:53:28.449Z,32.81
2019-06-08T09:54:21.912Z,32.57
2019-06-08T09:55:20.888Z,32.60
2019-06-08T09:56:20.890Z,32.66
2019-06-08T09:57:20.856Z,32.53
2019-06-08T09:58:20.859Z,32.17
2019-06-08T09:59:20.892Z,32.19
2019-06-08T10:00:25.289Z,32.04
2019-06-08T10:01:20.820Z,32.12
2019-06-08T10:02:20.808Z,32.16
2019-06-08T10:03:20.814Z,32.27
2019-06-08T10:04:20.847Z,32.39
2019-06-08T10:05:20.784Z,32.54
2019-06-08T10:06:20.772Z,32.41
2019-06-08T10:07:20.773Z,32.42
2019-06-08T10:08:20.974Z,32.44
2019-06-08T10:09:20.733Z,32.45
2019-06-08T10:10:20.720Z,32.53
2019-06-08T10:11:20.743Z,32.37
2019-06-08T10:12:20.723Z,32.29
2019-06-08T10:13:20.683Z,32.29
2019-06-08T10:14:20.681Z,32.27
2019-06-08T10:15:20.666Z,32.31
2019-06-08T10:16:20.666Z,32.20
2019-06-08T10:17:21.025Z,32.27
2019-06-08T10:18:20.645Z,32.07
2019-06-08T10:19:20.636Z,32.22
2019-06-08T10:20:20.608Z,32.20
2019-06-08T10:21:21.165Z,32.22
2019-06-08T10:22:20.603Z,32.29
2019-06-08T10:23:34.583Z,32.23
2019-06-08T10:24:20.586Z,32.24
2019-06-08T10:25:20.559Z,32.35
2019-06-08T10:26:20.548Z,32.17
2019-06-08T10:27:20.535Z,31.78
2019-06-08T10:28:21.786Z,31.89
2019-06-08T10:29:20.533Z,31.97
2019-06-08T10:30:20.505Z,31.98
2019-06-08T10:31:33.196Z,32.02
2019-06-08T10:32:21.524Z,31.90
2019-06-08T10:33:20.499Z,32.12
2019-06-08T10:34:20.461Z,32.23
2019-06-08T10:35:20.955Z,32.20
2019-06-08T10:36:20.441Z,32.02
2019-06-08T10:37:20.423Z,31.95
2019-06-08T10:38:20.438Z,32.02
2019-06-08T10:39:20.411Z,32.17
2019-06-08T10:40:20.395Z,32.30
2019-06-08T10:41:21.818Z,32.31
2019-06-08T10:42:20.386Z,32.29
2019-06-08T10:43:20.366Z,32.34
2019-06-08T10:44:20.415Z,32.37
2019-06-08T10:45:20.357Z,32.26
2019-06-08T10:46:21.032Z,32.11
2019-06-08T10:47:20.318Z,32.20
2019-06-08T10:48:20.310Z,32.22
2019-06-08T10:49:20.371Z,32.30
2019-06-08T10:50:20.359Z,32.08
2019-06-08T10:51:20.303Z,32.17
2019-06-08T10:52:20.440Z,32.24
2019-06-08T10:53:20.263Z,32.30
2019-06-08T10:54:32.428Z,32.42
2019-06-08T10:55:20.239Z,32.56
2019-06-08T10:56:20.230Z,32.51
2019-06-08T10:57:20.208Z,32.26
2019-06-08T10:58:20.199Z,32.19
2019-06-08T10:59:20.185Z,32.27
2019-06-08T11:00:23.919Z,32.19
2019-06-08T11:01:20.169Z,32.31
2019-06-08T11:02:20.154Z,32.41
2019-06-08T11:03:20.144Z,32.54
2019-06-08T11:04:20.127Z,32.48
2019-06-08T11:05:20.153Z,32.20
2019-06-08T11:06:20.116Z,32.09
2019-06-08T11:07:20.102Z,31.98
2019-06-08T11:08:20.092Z,31.79
2019-06-08T11:09:20.170Z,32.04
2019-06-08T11:10:20.084Z,32.07
2019-06-08T11:11:20.629Z,31.95
2019-06-08T11:12:20.062Z,32.00
2019-06-08T11:13:20.033Z,32.09
2019-06-08T11:14:22.653Z,32.23
2019-06-08T11:15:20.020Z,32.39
2019-06-08T11:16:20.005Z,32.15
2019-06-08T11:17:20.011Z,31.98
2019-06-08T11:18:19.993Z,31.74
2019-06-08T11:19:19.966Z,31.81
2019-06-08T11:20:19.965Z,31.74
2019-06-08T11:21:19.985Z,31.52
2019-06-08T11:22:19.937Z,31.55
2019-06-08T11:23:19.927Z,31.72
2019-06-08T11:24:24.636Z,31.66
2019-06-08T11:26:39.772Z,31.33
2019-06-08T11:27:38.654Z,31.32
2019-06-08T11:28:35.077Z,31.36
2019-06-08T11:29:35.098Z,31.47
2019-06-08T11:30:35.097Z,31.54
2019-06-08T11:31:35.041Z,31.63
2019-06-08T11:32:35.077Z,31.73
2019-06-08T11:33:35.034Z,31.79
2019-06-08T11:34:37.503Z,31.72
2019-06-08T11:35:35.001Z,31.59
2019-06-08T11:36:35.000Z,31.55
2019-06-08T11:37:34.978Z,31.57
2019-06-08T11:38:34.988Z,31.62
2019-06-08T11:39:34.970Z,31.77
2019-06-08T11:40:34.946Z,31.73
2019-06-08T11:41:34.948Z,31.78
2019-06-08T11:42:34.962Z,31.77
2019-06-08T11:43:34.916Z,31.63
2019-06-08T11:44:34.913Z,31.55
2019-06-08T11:45:35.763Z,31.57
2019-06-08T11:46:34.885Z,31.50
2019-06-08T11:47:34.903Z,31.37
2019-06-08T11:48:37.936Z,31.35
2019-06-08T11:49:34.976Z,31.57
2019-06-08T11:50:34.839Z,31.72
2019-06-08T11:51:37.695Z,31.85
2019-06-08T11:52:34.822Z,31.92
2019-06-08T11:53:34.825Z,31.90
2019-06-08T11:54:40.009Z,31.90
2019-06-08T11:55:38.352Z,31.97
2019-06-08T11:56:44.769Z,32.02
2019-06-08T11:57:34.768Z,32.15
2019-06-08T11:58:34.767Z,31.97
2019-06-08T11:59:34.747Z,31.92
2019-06-08T12:00:34.735Z,31.82
2019-06-08T12:01:34.725Z,31.97
2019-06-08T12:02:34.715Z,32.01
2019-06-08T12:03:34.716Z,32.00
2019-06-08T12:04:34.709Z,31.97
2019-06-08T12:05:34.694Z,31.95
2019-06-08T12:06:34.702Z,31.97
2019-06-08T12:07:34.670Z,31.90
2019-06-08T12:08:34.654Z,31.87
2019-06-08T12:09:34.650Z,31.78
2019-06-08T12:10:34.657Z,31.78
2019-06-08T12:11:34.630Z,31.87
2019-06-08T12:12:34.613Z,31.82
2019-06-08T12:13:34.606Z,31.77
2019-06-08T12:14:34.635Z,31.67
2019-06-08T12:15:34.584Z,31.57
2019-06-08T12:16:34.583Z,31.33
2019-06-08T12:17:34.566Z,31.26
2019-06-08T12:18:34.547Z,31.28
2019-06-08T12:19:34.538Z,31.26
2019-06-08T12:20:34.573Z,31.25
2019-06-08T12:21:34.515Z,31.22
2019-06-08T12:22:34.511Z,31.23
2019-06-08T12:23:34.508Z,31.33
2019-06-08T12:24:42.186Z,31.22
2019-06-08T12:25:37.758Z,30.99
2019-06-08T12:26:34.472Z,30.98
2019-06-08T12:27:48.685Z,31.07
2019-06-08T12:28:34.441Z,30.92
2019-06-08T12:29:34.434Z,30.88
2019-06-08T12:30:34.461Z,30.99
2019-06-08T12:31:34.413Z,31.14
2019-06-08T12:32:34.471Z,31.13
2019-06-08T12:33:34.393Z,31.04
2019-06-08T12:34:34.603Z,31.17
2019-06-08T12:35:34.370Z,30.99
2019-06-08T12:36:34.382Z,31.13
2019-06-08T12:37:34.349Z,30.99
2019-06-08T12:38:34.760Z,31.00
2019-06-08T12:39:34.358Z,31.17
2019-06-08T12:40:34.361Z,31.05
2019-06-08T12:41:34.334Z,30.99
2019-06-08T12:42:34.299Z,31.08
2019-06-08T12:43:34.316Z,31.22
2019-06-08T12:44:34.295Z,31.17
2019-06-08T12:45:34.275Z,31.17
2019-06-08T12:46:34.301Z,31.11
2019-06-08T12:47:34.247Z,31.11
2019-06-08T12:48:34.243Z,30.93
2019-06-08T12:49:34.239Z,30.78
2019-06-08T12:50:34.223Z,31.00
2019-06-08T12:51:34.206Z,31.05
2019-06-08T12:52:34.210Z,31.10
2019-06-08T12:53:34.192Z,31.18